Nicoya, Costa Rica
Current Conditions -  °F | °C
As of 7:00 PM on Thursday 27 Nov 2014 (Local Time) from MRLB Reporting Station
Scattered Clouds Scattered Clouds  
Wind Chill: 81°   Ceiling: Unl
Heat Index: 83°   Visibility: 6mi
Dew Point: 68°   Wind: 18mph
Humidity: 65%   Direction: 70°ENE
Pressure: 29.84"   Gusts: NA
Location:  10.14°N, 85.46°W
Report Text: MRLB 280100Z 07016KT 9999 FEW035 SCT130 27/20 A2984
Loading
Personal Weather Stations






























Interactive Weather Map New forecast layout! Learn more

10-Day Weather Forecast

Advertisements
Track Severe Weather on mobile